Terminal Aerodrome Forecast
Issued by NWS

Home | Current Version | Previous Version | Text Only | Print | Product List | Glossary Off
Versions: 1 2 3 4 5 6 7 8 9 10 11 12 13 14 15 16 17 18 19 20 21 22 23 24 25 26 27 28

000
FTUS43 KABR 231655 AAC
TAFATY
TAF AMD
KATY 231655Z 2317/2412 35012KT P6SM VCSH SCT011 BKN017 OVC030
      TEMPO 2317/2319 SCT021 BKN030 OVC040
     FM231900 35016G24KT P6SM OVC015
     FM240200 01007KT P6SM BKN050
     FM240900 VRB05KT P6SM OVC015=

USA.gov is the U.S. government's official web portal to all federal, state and local government web resources and services.